Apageon — 9HRM8 — position and weather

sailwx.info

Track history (hours):
 
Tides and Currents Weather Stations Pressure Air Temp Water Temp Dewpoint Dewpoint Depression Visibility Wind Speed Wind Dir Waves Ship Positions

Apageon

Last reported at 2017-Oct-19 10:33 UTC. Time now 2017-Oct-20 16:17 UTC.
Position N 32°26' E 030°46'.

Length 190 m; draft 6.2 m.

Type: Ship. MMSI: 256334000.

Date/timePositionNaut miles runAvg speedWind from/ knotsBaromVisibWave heightAir tempDewpointWater temp
2017-Oct-19 10:33N 32°26' E 030°46'2514.0
2017-Oct-19 08:48N 32°33' E 030°19'57113.9
2017-Oct-17 15:40N 35°11' E 019°18'413.9
2017-Oct-17 15:21N 35°12' E 019°13'513.8
2017-Oct-17 15:00N 35°14' E 019°07'3014.0
2017-Oct-17 12:50N 35°22' E 018°31'514.1
2017-Oct-17 12:30N 35°23' E 018°26'714.1
2017-Oct-17 12:01N 35°25' E 018°18'1114.0
2017-Oct-17 11:12N 35°28' E 018°04'16414.1
2017-Oct-16 23:35N 36°14' E 014°50'114.7
2017-Oct-16 23:29N 36°15' E 014°49'714.6
2017-Oct-16 23:00N 36°17' E 014°40'714.6
2017-Oct-16 22:30N 36°19' E 014°32'714.7
2017-Oct-16 22:00N 36°21' E 014°23'714.5
2017-Oct-16 21:30N 36°24' E 014°15'714.5
2017-Oct-16 21:00N 36°26' E 014°06'714.5
2017-Oct-16 20:30N 36°28' E 013°57'714.4
2017-Oct-16 19:59N 36°30' E 013°49'714.4
2017-Oct-16 19:30N 36°32' E 013°40'714.3
2017-Oct-16 19:00N 36°35' E 013°32'714.2
2017-Oct-16 18:30N 36°37' E 013°24'714.2
2017-Oct-16 18:00N 36°40' E 013°15'714.2
2017-Oct-16 17:30N 36°42' E 013°07'714.3
2017-Oct-16 17:00N 36°45' E 012°59'714.2
2017-Oct-16 16:30N 36°47' E 012°50'714.1
2017-Oct-16 16:00N 36°49' E 012°42'1114.0
2017-Oct-16 15:13N 36°52' E 012°29'314.1
2017-Oct-16 15:00N 36°53' E 012°25'714.3
2017-Oct-16 14:30N 36°56' E 012°17'1414.2
2017-Oct-16 13:30N 37°00' E 012°00'10413.9
2017-Oct-16 06:04N 37°34' E 009°57'35813.6
2017-Oct-15 03:49N 36°57' E 002°30'514.2
2017-Oct-15 03:30N 36°56' E 002°24'714.2
2017-Oct-15 02:59N 36°55' E 002°15'8213.8
2017-Oct-14 21:05N 36°43' E 000°34'213.9
2017-Oct-14 20:57N 36°42' E 000°32'613.9
2017-Oct-14 20:30N 36°41' E 000°25'713.7
2017-Oct-14 20:00N 36°40' E 000°16'713.7
2017-Oct-14 19:29N 36°39' E 000°07'1313.8
2017-Oct-14 18:31N 36°37' W 000°09'113.9
2017-Oct-14 18:28N 36°37' W 000°10'613.8
2017-Oct-14 18:00N 36°36' W 000°18'713.8
2017-Oct-14 17:30N 36°35' W 000°26'713.7
2017-Oct-14 17:00N 36°34' W 000°35'714.1
2017-Oct-14 16:30N 36°33' W 000°43'914.0
2017-Oct-14 15:54N 36°31' W 000°54'514.0
2017-Oct-14 15:30N 36°30' W 001°01'714.0
2017-Oct-14 14:59N 36°29' W 001°09'713.9
2017-Oct-14 14:30N 36°28' W 001°18'18514.3
2017-Oct-14 01:31N 35°57' W 005°04'013.3
2017-Oct-14 01:30N 35°57' W 005°05'612.6
2017-Oct-14 01:00N 35°56' W 005°12'5 9.7
2017-Oct-14 00:30N 35°55' W 005°18'1 2.8
2017-Oct-13 23:59N 35°55' W 005°20'0 0.1
2017-Oct-13 23:29N 35°55' W 005°20'0 0.1
2017-Oct-13 22:59N 35°55' W 005°20'0 0.1
2017-Oct-13 22:30N 35°55' W 005°20'0 0.0
2017-Oct-13 21:59N 35°55' W 005°20'0 0.0
2017-Oct-13 21:29N 35°55' W 005°20'0 0.2
2017-Oct-13 20:59N 35°55' W 005°20'0 0.1
2017-Oct-13 20:29N 35°55' W 005°20'0 0.0
2017-Oct-13 19:59N 35°55' W 005°20'0 0.0
2017-Oct-13 19:29N 35°55' W 005°20'0 0.3
2017-Oct-13 18:59N 35°55' W 005°20'1 1.5
2017-Oct-13 18:31N 35°55' W 005°20'2 4.6
2017-Oct-13 18:01N 35°58' W 005°21'611.8
2017-Oct-13 17:30N 35°57' W 005°28'10712.9
2017-Oct-13 09:15N 36°12' W 007°39'312.7
2017-Oct-13 08:59N 36°13' W 007°43'613.4
2017-Oct-13 08:30N 36°15' W 007°51'713.5
2017-Oct-13 08:00N 36°17' W 007°59'1013.7
2017-Oct-13 07:17N 36°19' W 008°11'413.6
2017-Oct-13 06:59N 36°20' W 008°16'713.7
2017-Oct-13 06:30N 36°22' W 008°24'713.7
2017-Oct-13 06:00N 36°23' W 008°32'713.8
2017-Oct-13 05:29N 36°25' W 008°41'813.6
2017-Oct-13 04:54N 36°27' W 008°50'513.2
2017-Oct-13 04:29N 36°29' W 008°56'1314.4
2017-Oct-13 03:36N 36°32' W 009°12'214.0
2017-Oct-13 03:27N 36°33' W 009°14'713.4
2017-Oct-13 02:57N 36°36' W 009°21'713.9
2017-Oct-13 02:28N 36°42' W 009°27'614.0
2017-Oct-13 02:00N 36°46' W 009°32'714.4
2017-Oct-13 01:30N 36°53' W 009°35'2314.1
2017-Oct-12 23:53N 37°15' W 009°41'513.6
2017-Oct-12 23:30N 37°20' W 009°43'913.7
2017-Oct-12 22:53N 37°29' W 009°45'1313.8
2017-Oct-12 21:57N 37°41' W 009°49'713.8
2017-Oct-12 21:25N 37°48' W 009°51'914.5
2017-Oct-12 20:48N 37°57' W 009°54'414.8
2017-Oct-12 20:31N 38°01' W 009°56'814.2
2017-Oct-12 19:59N 38°08' W 009°59'913.6
2017-Oct-12 19:18N 38°17' W 010°01'413.5
2017-Oct-12 19:00N 38°21' W 010°01'714.0
2017-Oct-12 18:30N 38°28' W 010°03'714.1
2017-Oct-12 18:00N 38°35' W 010°04'714.4
2017-Oct-12 17:30N 38°42' W 010°06'714.3
2017-Oct-12 17:00N 38°49' W 010°06'714.1
2017-Oct-12 16:30N 38°56' W 010°07'713.5
2017-Oct-12 16:00N 39°03' W 010°07'713.6
2017-Oct-12 15:30N 39°10' W 010°07'713.9
2017-Oct-12 15:01N 39°17' W 010°06'713.7
2017-Oct-12 14:30N 39°24' W 010°06'713.7
2017-Oct-12 14:00N 39°30' W 010°06'3213.5
2017-Oct-12 11:38N 40°02' W 010°07'213.4
2017-Oct-12 11:29N 40°04' W 010°07'813.6
2017-Oct-12 10:55N 40°12' W 010°08'614.0
2017-Oct-12 10:30N 40°18' W 010°08'814.2
2017-Oct-12 09:57N 40°26' W 010°08'613.9
2017-Oct-12 09:29N 40°32' W 010°08'60813.5
2017-Oct-10 12:27N 50°22' W 006°36'2714.0
2017-Oct-10 10:34N 50°47' W 006°24'113.6
2017-Oct-10 10:29N 50°48' W 006°24'713.5
2017-Oct-10 09:59N 50°54' W 006°21'1013.3
2017-Oct-10 09:16N 51°04' W 006°16'813.0
2017-Oct-10 08:39N 51°11' W 006°12'713.0
2017-Oct-10 08:08N 51°18' W 006°10'212.8
2017-Oct-10 08:00N 51°20' W 006°09'712.8
2017-Oct-10 07:27N 51°26' W 006°06'3114.2
2017-Oct-10 05:18N 51°55' W 005°51'515.8
2017-Oct-10 05:00N 51°60' W 005°49'816.0
2017-Oct-10 04:30N 52°08' W 005°45'815.9
2017-Oct-10 04:00N 52°15' W 005°41'815.8
2017-Oct-10 03:30N 52°23' W 005°38'715.1
2017-Oct-10 03:00N 52°30' W 005°34'89 8.8
2017-Oct-09 16:56N 53°34' W 003°51'512.1
2017-Oct-09 16:30N 53°34' W 003°43'713.1
2017-Oct-09 16:00N 53°34' W 003°32'612.7
2017-Oct-09 15:30N 53°33' W 003°21'5 9.2
2017-Oct-09 15:00N 53°31' W 003°14'5 9.9
2017-Oct-09 14:30N 53°30' W 003°06'5 9.5
2017-Oct-09 14:00N 53°26' W 003°01'0 0.7
2017-Oct-09 13:30N 53°26' W 003°01'0 0.1
2017-Oct-09 13:00N 53°27' W 003°01'0 0.3
2017-Oct-09 12:30N 53°27' W 003°01'0 0.2
2017-Oct-09 12:00N 53°27' W 003°00'0 0.7
2017-Oct-09 11:30N 53°26' W 003°00'0 0.1
2017-Oct-09 10:58N 53°26' W 003°00'  
Track history (hours):
 
Tides and Currents Weather Stations Pressure Air Temp Water Temp Dewpoint Dewpoint Depression Visibility Wind Speed Wind Dir Waves Ship Positions

Apageon

Last reported at 2017-Oct-19 10:33 UTC. Time now 2017-Oct-20 16:17 UTC.
Position N 32°26' E 030°46'.

Length 190 m; draft 6.2 m.

Type: Ship. MMSI: 256334000.

Date/timePositionNaut miles runAvg speedWind from/ knotsBaromVisibWave heightAir tempDewpointWater temp
2017-Oct-19 10:33N 32°26' E 030°46'2514.0
2017-Oct-19 08:48N 32°33' E 030°19'57113.9
2017-Oct-17 15:40N 35°11' E 019°18'413.9
2017-Oct-17 15:21N 35°12' E 019°13'513.8
2017-Oct-17 15:00N 35°14' E 019°07'3014.0
2017-Oct-17 12:50N 35°22' E 018°31'514.1
2017-Oct-17 12:30N 35°23' E 018°26'714.1
2017-Oct-17 12:01N 35°25' E 018°18'1114.0
2017-Oct-17 11:12N 35°28' E 018°04'16414.1
2017-Oct-16 23:35N 36°14' E 014°50'114.7
2017-Oct-16 23:29N 36°15' E 014°49'714.6
2017-Oct-16 23:00N 36°17' E 014°40'714.6
2017-Oct-16 22:30N 36°19' E 014°32'714.7
2017-Oct-16 22:00N 36°21' E 014°23'714.5
2017-Oct-16 21:30N 36°24' E 014°15'714.5
2017-Oct-16 21:00N 36°26' E 014°06'714.5
2017-Oct-16 20:30N 36°28' E 013°57'714.4
2017-Oct-16 19:59N 36°30' E 013°49'714.4
2017-Oct-16 19:30N 36°32' E 013°40'714.3
2017-Oct-16 19:00N 36°35' E 013°32'714.2
2017-Oct-16 18:30N 36°37' E 013°24'714.2
2017-Oct-16 18:00N 36°40' E 013°15'714.2
2017-Oct-16 17:30N 36°42' E 013°07'714.3
2017-Oct-16 17:00N 36°45' E 012°59'714.2
2017-Oct-16 16:30N 36°47' E 012°50'714.1
2017-Oct-16 16:00N 36°49' E 012°42'1114.0
2017-Oct-16 15:13N 36°52' E 012°29'314.1
2017-Oct-16 15:00N 36°53' E 012°25'714.3
2017-Oct-16 14:30N 36°56' E 012°17'1414.2
2017-Oct-16 13:30N 37°00' E 012°00'10413.9
2017-Oct-16 06:04N 37°34' E 009°57'35813.6
2017-Oct-15 03:49N 36°57' E 002°30'514.2
2017-Oct-15 03:30N 36°56' E 002°24'714.2
2017-Oct-15 02:59N 36°55' E 002°15'8213.8
2017-Oct-14 21:05N 36°43' E 000°34'213.9
2017-Oct-14 20:57N 36°42' E 000°32'613.9
2017-Oct-14 20:30N 36°41' E 000°25'713.7
2017-Oct-14 20:00N 36°40' E 000°16'713.7
2017-Oct-14 19:29N 36°39' E 000°07'1313.8
2017-Oct-14 18:31N 36°37' W 000°09'113.9
2017-Oct-14 18:28N 36°37' W 000°10'613.8
2017-Oct-14 18:00N 36°36' W 000°18'713.8
2017-Oct-14 17:30N 36°35' W 000°26'713.7
2017-Oct-14 17:00N 36°34' W 000°35'714.1
2017-Oct-14 16:30N 36°33' W 000°43'914.0
2017-Oct-14 15:54N 36°31' W 000°54'514.0
2017-Oct-14 15:30N 36°30' W 001°01'714.0
2017-Oct-14 14:59N 36°29' W 001°09'713.9
2017-Oct-14 14:30N 36°28' W 001°18'18514.3
2017-Oct-14 01:31N 35°57' W 005°04'013.3
2017-Oct-14 01:30N 35°57' W 005°05'612.6
2017-Oct-14 01:00N 35°56' W 005°12'5 9.7
2017-Oct-14 00:30N 35°55' W 005°18'1 2.8
2017-Oct-13 23:59N 35°55' W 005°20'0 0.1
2017-Oct-13 23:29N 35°55' W 005°20'0 0.1
2017-Oct-13 22:59N 35°55' W 005°20'0 0.1
2017-Oct-13 22:30N 35°55' W 005°20'0 0.0
2017-Oct-13 21:59N 35°55' W 005°20'0 0.0
2017-Oct-13 21:29N 35°55' W 005°20'0 0.2
2017-Oct-13 20:59N 35°55' W 005°20'0 0.1
2017-Oct-13 20:29N 35°55' W 005°20'0 0.0
2017-Oct-13 19:59N 35°55' W 005°20'0 0.0
2017-Oct-13 19:29N 35°55' W 005°20'0 0.3
2017-Oct-13 18:59N 35°55' W 005°20'1 1.5
2017-Oct-13 18:31N 35°55' W 005°20'2 4.6
2017-Oct-13 18:01N 35°58' W 005°21'611.8
2017-Oct-13 17:30N 35°57' W 005°28'10712.9
2017-Oct-13 09:15N 36°12' W 007°39'312.7
2017-Oct-13 08:59N 36°13' W 007°43'613.4
2017-Oct-13 08:30N 36°15' W 007°51'713.5
2017-Oct-13 08:00N 36°17' W 007°59'1013.7
2017-Oct-13 07:17N 36°19' W 008°11'413.6
2017-Oct-13 06:59N 36°20' W 008°16'713.7
2017-Oct-13 06:30N 36°22' W 008°24'713.7
2017-Oct-13 06:00N 36°23' W 008°32'713.8
2017-Oct-13 05:29N 36°25' W 008°41'813.6
2017-Oct-13 04:54N 36°27' W 008°50'513.2
2017-Oct-13 04:29N 36°29' W 008°56'1314.4
2017-Oct-13 03:36N 36°32' W 009°12'214.0
2017-Oct-13 03:27N 36°33' W 009°14'713.4
2017-Oct-13 02:57N 36°36' W 009°21'713.9
2017-Oct-13 02:28N 36°42' W 009°27'614.0
2017-Oct-13 02:00N 36°46' W 009°32'714.4
2017-Oct-13 01:30N 36°53' W 009°35'2314.1
2017-Oct-12 23:53N 37°15' W 009°41'513.6
2017-Oct-12 23:30N 37°20' W 009°43'913.7
2017-Oct-12 22:53N 37°29' W 009°45'1313.8
2017-Oct-12 21:57N 37°41' W 009°49'713.8
2017-Oct-12 21:25N 37°48' W 009°51'914.5
2017-Oct-12 20:48N 37°57' W 009°54'414.8
2017-Oct-12 20:31N 38°01' W 009°56'814.2
2017-Oct-12 19:59N 38°08' W 009°59'913.6
2017-Oct-12 19:18N 38°17' W 010°01'413.5
2017-Oct-12 19:00N 38°21' W 010°01'714.0
2017-Oct-12 18:30N 38°28' W 010°03'714.1
2017-Oct-12 18:00N 38°35' W 010°04'714.4
2017-Oct-12 17:30N 38°42' W 010°06'714.3
2017-Oct-12 17:00N 38°49' W 010°06'714.1
2017-Oct-12 16:30N 38°56' W 010°07'713.5
2017-Oct-12 16:00N 39°03' W 010°07'713.6
2017-Oct-12 15:30N 39°10' W 010°07'713.9
2017-Oct-12 15:01N 39°17' W 010°06'713.7
2017-Oct-12 14:30N 39°24' W 010°06'713.7
2017-Oct-12 14:00N 39°30' W 010°06'3213.5
2017-Oct-12 11:38N 40°02' W 010°07'213.4
2017-Oct-12 11:29N 40°04' W 010°07'813.6
2017-Oct-12 10:55N 40°12' W 010°08'614.0
2017-Oct-12 10:30N 40°18' W 010°08'814.2
2017-Oct-12 09:57N 40°26' W 010°08'613.9
2017-Oct-12 09:29N 40°32' W 010°08'60813.5
2017-Oct-10 12:27N 50°22' W 006°36'2714.0
2017-Oct-10 10:34N 50°47' W 006°24'113.6
2017-Oct-10 10:29N 50°48' W 006°24'713.5
2017-Oct-10 09:59N 50°54' W 006°21'1013.3
2017-Oct-10 09:16N 51°04' W 006°16'813.0
2017-Oct-10 08:39N 51°11' W 006°12'713.0
2017-Oct-10 08:08N 51°18' W 006°10'212.8
2017-Oct-10 08:00N 51°20' W 006°09'712.8
2017-Oct-10 07:27N 51°26' W 006°06'3114.2
2017-Oct-10 05:18N 51°55' W 005°51'515.8
2017-Oct-10 05:00N 51°60' W 005°49'816.0
2017-Oct-10 04:30N 52°08' W 005°45'815.9
2017-Oct-10 04:00N 52°15' W 005°41'815.8
2017-Oct-10 03:30N 52°23' W 005°38'715.1
2017-Oct-10 03:00N 52°30' W 005°34'89 8.8
2017-Oct-09 16:56N 53°34' W 003°51'512.1
2017-Oct-09 16:30N 53°34' W 003°43'713.1
2017-Oct-09 16:00N 53°34' W 003°32'612.7
2017-Oct-09 15:30N 53°33' W 003°21'5 9.2
2017-Oct-09 15:00N 53°31' W 003°14'5 9.9
2017-Oct-09 14:30N 53°30' W 003°06'5 9.5
2017-Oct-09 14:00N 53°26' W 003°01'0 0.7
2017-Oct-09 13:30N 53°26' W 003°01'0 0.1
2017-Oct-09 13:00N 53°27' W 003°01'0 0.3
2017-Oct-09 12:30N 53°27' W 003°01'0 0.2
2017-Oct-09 12:00N 53°27' W 003°00'0 0.7
2017-Oct-09 11:30N 53°26' W 003°00'0 0.1
2017-Oct-09 10:58N 53°26' W 003°00'  

Dump ship's entire track history